Strona główna
METAR-TAF:

METAR-TAF

Lotnisko :

Montichiari

Brescia, Włochy

Szerokość geograficzna: 45-24-02N, Długość geograficzna: 010-18-59E, wysokość: 104 m

Aktualna obserwacja pogody

Raport powstał 30 minut temu, godzina 22:50 UTC
Wiatr 5 kt od północ
Temperatura 9°C
Wilgotność 81%
Ciśnienie 1017 hPa
Widzialność 10 km lub więcej

METAR: LIPO 182250Z AUTO 01005KT 9999 OVC098/// 09/06 Q1017

czas: 01:20 (23:20 UTC)

Prognoza

Raport powstał 6 godziny i 20 minut temu, godzina 17:00 UTC
Prognoza ważna od 18 godzina 18 UTC do 19 godzina 18 UTC
Wiatr 5 kt z kierunków zmiennych
Widzialność 10 km lub więcej
Brak chmur poniżej 1500 m i brak chmur cumulonimbus

TAF: LIPO 181700Z 1818/1918 VRB05KT CAVOK

Obserwacja i prognoza pogody dla ponad 4000 lotnisk (raport METAR i TAF).

Dostępne stacje oznaczono żółtymi i czerwonymi punktami na mapie.

Najedź kursorem aby zobaczyć nazwę stacji.

Kliknij aby zobaczyć obserwacje i prognozy pogody.

Aby zmienić mapę: kliknij na zielony przycisk z czarnym krzyżykiem, aby powiększyć; na zielony przycisk z myślnikiem, aby pomniejszyć; na zielone strzałki, aby przejść do map sąsiednich.


METAR-TAF: